Time;durP1;ratioP1;P1;durP2;ratioP2;P2;SDS_P1;SDS_P2;PMS_P1;PMS_P2;Temp;Humidity;BMP_temperature;BMP_pressure;BME280_temperature;BME280_humidity;BME280_pressure;Samples;Min_cycle;Max_cycle;Signal;HPM_P1;HPM_P2
2022/07/01 07:07:12;;;;;;;3.28;2.60;;;;;;;13.92;100.00;99216.53;5094211;27;20167;-75
2022/07/01 07:09:39;;;;;;;5.50;2.80;;;;;;;13.99;100.00;99226.44;5087942;28;20051;-76
2022/07/01 07:12:06;;;;;;;8.15;3.42;;;;;;;14.09;100.00;99227.94;5087393;28;20048;-76
2022/07/01 07:14:32;;;;;;;4.78;3.13;;;;;;;14.24;100.00;99222.28;5088041;28;20414;-76
2022/07/01 07:16:59;;;;;;;3.90;2.35;;;;;;;14.38;100.00;99236.81;5090369;28;20044;-76
2022/07/01 07:19:25;;;;;;;3.28;2.10;;;;;;;14.38;100.00;99239.56;5103871;28;20055;-76
2022/07/01 07:21:52;;;;;;;2.45;2.13;;;;;;;14.41;100.00;99248.22;5076531;28;20144;-76
2022/07/01 07:24:20;;;;;;;5.78;2.30;;;;;;;14.39;100.00;99230.31;5086205;28;20048;-76
2022/07/01 07:26:47;;;;;;;3.67;2.05;;;;;;;14.47;100.00;99232.88;5088132;28;20048;-77
2022/07/01 07:29:14;;;;;;;3.05;2.42;;;;;;;14.69;100.00;99249.94;5072602;28;20055;-77
2022/07/01 07:31:40;;;;;;;2.45;1.48;;;;;;;14.53;100.00;99251.19;5093367;28;20135;-77
2022/07/01 07:34:07;;;;;;;2.30;1.98;;;;;;;14.65;100.00;99251.44;5085925;28;20514;-77
2022/07/01 07:36:33;;;;;;;2.75;1.70;;;;;;;14.43;100.00;99228.84;5087927;28;20518;-77
2022/07/01 07:39:00;;;;;;;2.83;1.42;;;;;;;14.56;100.00;99248.03;5088866;28;20066;-77
2022/07/01 07:41:28;;;;;;;2.05;1.60;;;;;;;14.36;100.00;99220.63;5088082;28;20055;-77
2022/07/01 07:43:54;;;;;;;1.60;1.33;;;;;;;14.29;100.00;99250.72;5085877;28;20048;-77
2022/07/01 07:46:21;;;;;;;3.03;1.52;;;;;;;14.31;100.00;99251.34;5087141;28;20491;-77
2022/07/01 07:48:47;;;;;;;3.92;1.23;;;;;;;14.46;100.00;99251.16;5087673;28;20051;-77
2022/07/01 07:51:16;;;;;;;4.93;1.90;;;;;;;14.51;100.00;99237.72;5087470;28;20451;-77
2022/07/01 07:53:43;;;;;;;1.67;1.38;;;;;;;14.46;100.00;99250.31;5084479;28;20411;-77
2022/07/01 07:56:10;;;;;;;1.20;1.10;;;;;;;14.71;100.00;99266.16;5066642;28;20048;-77
2022/07/01 07:58:41;;;;;;;1.38;1.17;;;;;;;14.59;100.00;99231.19;5067310;28;20052;-76
2022/07/01 08:01:08;;;;;;;1.27;1.05;;;;;;;14.81;100.00;99264.72;5067094;28;20057;-77
2022/07/01 08:03:35;;;;;;;0.95;0.90;;;;;;;14.85;100.00;99251.44;5066255;28;20052;-76
2022/07/01 08:06:01;;;;;;;1.23;0.95;;;;;;;14.78;100.00;99235.00;5085947;28;20406;-77
2022/07/01 08:08:28;;;;;;;2.35;1.20;;;;;;;14.80;100.00;99253.97;5100496;28;20486;-76
2022/07/01 08:10:54;;;;;;;1.02;0.82;;;;;;;14.84;100.00;99261.56;5107391;28;20559;-77
2022/07/01 08:13:21;;;;;;;0.85;0.82;;;;;;;14.73;100.00;99261.34;5105549;28;20048;-76
2022/07/01 08:15:49;;;;;;;2.15;0.90;;;;;;;14.56;100.00;99233.47;5106832;28;20047;-77
2022/07/01 08:18:15;;;;;;;0.88;0.88;;;;;;;14.69;100.00;99249.94;5093830;28;20056;-77
2022/07/01 08:20:42;;;;;;;1.35;1.00;;;;;;;14.31;100.00;99245.03;5093334;28;20488;-76
2022/07/01 08:23:08;;;;;;;1.00;0.90;;;;;;;14.36;100.00;99264.38;5091867;28;20545;-77
2022/07/01 08:25:35;;;;;;;0.80;0.80;;;;;;;14.30;100.00;99263.34;5091164;28;20048;-77
2022/07/01 08:28:01;;;;;;;1.38;1.00;;;;;;;14.26;100.00;99275.72;5091330;28;20052;-76
2022/07/01 08:30:28;;;;;;;2.20;1.10;;;;;;;14.33;100.00;99292.16;5089564;28;20278;-77
2022/07/01 08:32:56;;;;;;;2.42;1.30;;;;;;;14.33;100.00;99284.81;5092694;28;20051;-77
2022/07/01 08:35:22;;;;;;;5.88;1.30;;;;;;;14.16;100.00;99265.19;5099584;28;20055;-77
2022/07/01 08:37:50;;;;;;;3.70;1.50;;;;;;;14.23;100.00;99289.81;5098662;28;20578;-77
2022/07/01 08:40:16;;;;;;;1.55;1.45;;;;;;;14.08;100.00;99300.06;5094258;28;20056;-76
2022/07/01 08:42:43;;;;;;;3.00;1.77;;;;;;;14.08;100.00;99311.00;5090720;28;20048;-76
2022/07/01 08:45:10;;;;;;;1.50;1.40;;;;;;;14.14;100.00;99308.28;5092805;28;20457;-77
2022/07/01 08:47:50;;;;;;;3.83;1.60;;;;;;;14.12;100.00;99304.06;5092813;28;20052;-77
2022/07/01 08:50:18;;;;;;;;;;;;;;;14.36;100.00;99316.34;5093586;28;20048;-77
2022/07/01 08:52:45;;;;;;;2.33;2.08;;;;;;;14.47;100.00;99314.94;5092235;28;19920;-77
2022/07/01 08:55:11;;;;;;;2.17;1.90;;;;;;;14.39;100.00;99312.38;5092751;28;20067;-76
2022/07/01 08:57:38;;;;;;;2.95;1.58;;;;;;;14.45;100.00;99319.75;5090729;28;20139;-77
2022/07/01 09:00:06;;;;;;;2.85;1.80;;;;;;;14.50;100.00;99329.03;5092780;28;20051;-77
2022/07/01 09:02:55;;;;;;;1.60;1.50;;;;;;;14.57;100.00;99326.28;5091813;28;20370;-77
2022/07/01 09:05:24;;;;;;;4.93;1.77;;;;;;;14.71;100.00;99327.22;5085950;28;20048;-77
2022/07/01 09:07:56;;;;;;;2.28;1.50;;;;;;;14.81;100.00;99324.06;5092834;28;20040;-77
2022/07/01 09:10:23;;;;;;;3.38;1.83;;;;;;;14.68;100.00;99308.47;5092365;28;20079;-77
2022/07/01 09:12:50;;;;;;;2.55;1.80;;;;;;;14.64;100.00;99326.34;5109186;28;20058;-77
2022/07/01 09:15:27;;;;;;;2.92;1.67;;;;;;;14.60;100.00;99325.03;5097197;28;20048;-77
2022/07/01 09:17:56;;;;;;;1.75;1.52;;;;;;;14.67;100.00;99328.66;5092043;28;20044;-77
2022/07/01 09:20:29;;;;;;;2.78;1.80;;;;;;;14.49;100.00;99321.03;5100134;28;20067;-77
2022/07/01 09:23:01;;;;;;;2.13;1.75;;;;;;;14.43;100.00;99324.59;5093238;28;20411;-77
2022/07/01 09:25:30;;;;;;;2.53;2.00;;;;;;;14.47;100.00;99318.50;5095351;28;20525;-76
2022/07/01 09:28:12;;;;;;;3.55;2.20;;;;;;;14.30;100.00;99320.78;5080425;28;20717;-78
2022/07/01 09:30:40;;;;;;;3.42;2.00;;;;;;;14.55;100.00;99331.13;5088501;28;20048;-77
2022/07/01 09:33:14;;;;;;;2.58;2.10;;;;;;;14.61;100.00;99330.34;5087658;28;20044;-77
2022/07/01 09:35:43;;;;;;;2.53;1.95;;;;;;;14.62;100.00;99328.47;5085457;28;20431;-76
2022/07/01 09:38:12;;;;;;;4.88;2.40;;;;;;;14.67;100.00;99295.84;5089645;28;20553;-77
2022/07/01 09:40:50;;;;;;;3.25;2.00;;;;;;;14.68;100.00;99290.16;5100565;28;20059;-77
2022/07/01 09:43:18;;;;;;;4.32;2.30;;;;;;;14.75;100.00;99311.22;5108630;28;20052;-77
2022/07/01 09:46:07;;;;;;;6.13;2.00;;;;;;;14.78;100.00;99328.03;5109773;28;20055;-77
2022/07/01 09:48:45;;;;;;;2.38;1.88;;;;;;;14.71;100.00;99337.28;5089704;28;20449;-77
2022/07/01 09:51:15;;;;;;;3.35;2.00;;;;;;;14.90;100.00;99320.06;5089207;28;20044;-76
2022/07/01 09:53:42;;;;;;;3.33;2.10;;;;;;;14.93;100.00;99321.53;5089301;28;20062;-76
2022/07/01 09:56:09;;;;;;;3.35;1.70;;;;;;;14.76;100.00;99319.22;5089367;28;20044;-76
2022/07/01 09:58:38;;;;;;;2.30;1.80;;;;;;;14.76;100.00;99327.41;5088855;28;20048;-76
2022/07/01 10:01:06;;;;;;;3.67;2.42;;;;;;;14.89;100.00;99333.97;5088576;28;20075;-76
2022/07/01 10:03:33;;;;;;;2.45;1.58;;;;;;;14.67;100.00;99334.16;5083409;28;20056;-76
2022/07/01 10:06:19;;;;;;;1.55;1.45;;;;;;;14.57;100.00;99320.81;5089171;28;20051;-77
2022/07/01 10:08:57;;;;;;;4.80;1.75;;;;;;;14.47;100.00;99314.94;5090646;28;20059;-76
2022/07/01 10:11:49;;;;;;;1.55;1.45;;;;;;;14.60;100.00;99328.63;5087341;28;20055;-76
2022/07/01 10:14:17;;;;;;;5.20;1.50;;;;;;;14.74;100.00;99336.88;5085923;28;20138;-76
2022/07/01 10:16:48;;;;;;;4.40;1.45;;;;;;;14.65;100.00;99306.16;5088749;28;20039;-76
2022/07/01 10:19:28;;;;;;;1.70;1.60;;;;;;;14.97;100.00;99347.47;5087566;28;20052;-76
2022/07/01 10:22:00;;;;;;;2.03;1.80;;;;;;;14.98;100.00;99332.69;5088917;28;20070;-76
2022/07/01 10:24:28;;;;;;;5.82;2.50;;;;;;;15.18;100.00;99339.03;5088636;28;20044;-76
2022/07/01 10:26:59;;;;;;;9.50;1.98;;;;;;;15.59;100.00;99356.28;5077965;28;20058;-77
2022/07/01 10:29:31;;;;;;;2.53;1.95;;;;;;;15.54;100.00;99367.88;5094724;28;20036;-77
2022/07/01 10:32:04;;;;;;;4.13;1.75;;;;;;;15.61;100.00;99369.78;5102575;28;20047;-76
2022/07/01 10:34:35;;;;;;;2.08;1.38;;;;;;;15.72;100.00;99363.66;5087747;28;20452;-77
2022/07/01 10:37:06;;;;;;;2.25;1.35;;;;;;;15.83;100.00;99376.72;5088740;28;20095;-77
2022/07/01 10:39:57;;;;;;;5.53;1.40;;;;;;;16.13;100.00;99376.22;5083542;28;20588;-77
2022/07/01 10:42:30;;;;;;;2.95;1.33;;;;;;;16.10;100.00;99374.75;5087346;28;20051;-77
2022/07/01 10:45:08;;;;;;;5.45;1.40;;;;;;;16.21;100.00;99354.06;5088909;28;20044;-77
2022/07/01 10:47:35;;;;;;;1.25;1.05;;;;;;;16.50;100.00;99372.91;5067685;28;20663;-77
2022/07/01 10:50:08;;;;;;;1.70;1.27;;;;;;;16.64;100.00;99378.09;5072980;28;20074;-77
2022/07/01 10:52:36;;;;;;;2.63;1.38;;;;;;;16.96;100.00;99350.69;5087818;28;20082;-76
2022/07/01 10:55:05;;;;;;;3.03;1.40;;;;;;;17.12;100.00;99360.31;5083973;28;20054;-77
2022/07/01 10:57:37;;;;;;;2.55;1.00;;;;;;;17.20;95.90;99378.41;5087716;28;20135;-77
2022/07/01 11:00:31;;;;;;;1.55;1.40;;;;;;;17.08;94.84;99396.69;5088051;28;20045;-77
2022/07/01 11:03:07;;;;;;;2.50;1.38;;;;;;;16.97;97.70;99401.81;5085572;28;20125;-78
2022/07/01 11:05:36;;;;;;;3.42;1.13;;;;;;;16.84;98.41;99395.53;5084310;28;20048;-78
2022/07/01 11:08:06;;;;;;;1.85;1.20;;;;;;;17.13;96.94;99400.47;5088369;28;20454;-78
2022/07/01 11:10:32;;;;;;;;;;;;;;;17.09;100.00;99406.63;5083756;28;20048;-79
2022/07/01 11:13:00;;;;;;;6.40;1.55;;;;;;;17.11;98.84;99398.97;5083082;28;20550;-79
2022/07/01 11:15:27;;;;;;;3.17;1.20;;;;;;;17.21;98.18;99387.50;5088426;28;20161;-79
2022/07/01 11:17:56;;;;;;;4.85;1.60;;;;;;;17.73;94.31;99399.09;5081343;28;20254;-79
2022/07/01 11:20:24;;;;;;;2.40;1.45;;;;;;;18.15;90.75;99391.09;5096743;28;20040;-79
2022/07/01 11:22:51;;;;;;;2.42;1.52;;;;;;;18.11;94.88;99403.63;5085672;28;20048;-79
2022/07/01 11:25:20;;;;;;;2.22;1.50;;;;;;;17.78;96.01;99395.66;5088401;28;20054;-79
2022/07/01 11:27:49;;;;;;;2.67;1.73;;;;;;;17.39;92.98;99398.56;5069429;28;20506;-80
2022/07/01 11:30:16;;;;;;;2.72;1.58;;;;;;;17.15;89.73;99373.59;5087587;28;20547;-80
2022/07/01 11:32:44;;;;;;;2.03;1.20;;;;;;;17.37;87.05;99383.38;5085261;28;20044;-79
2022/07/01 11:40:55;;;;;;;1.83;1.45;;;;;;;17.31;95.35;99393.34;5089112;28;20067;-79
2022/07/01 11:43:25;;;;;;;1.67;1.50;;;;;;;17.51;100.00;99390.44;5080234;28;20048;-80
2022/07/01 11:45:52;;;;;;;2.38;1.70;;;;;;;17.82;96.44;99386.75;5083112;28;20135;-80
2022/07/01 11:48:36;;;;;;;2.33;1.58;;;;;;;18.42;84.79;99374.25;5089282;28;20040;-80
2022/07/01 11:51:09;;;;;;;1.75;1.50;;;;;;;18.72;85.36;99384.47;5083312;28;20059;-80
2022/07/01 11:53:36;;;;;;;5.70;2.35;;;;;;;18.78;85.81;99386.28;5090527;28;20068;-79
2022/07/01 11:56:04;;;;;;;1.48;1.35;;;;;;;18.57;79.16;99385.69;5091818;28;20441;-80
2022/07/01 11:58:51;;;;;;;3.75;1.20;;;;;;;18.54;78.24;99388.91;5091579;28;20055;-80
2022/07/01 12:01:23;;;;;;;3.15;1.70;;;;;;;18.45;78.01;99387.56;5092087;28;20048;-80
2022/07/01 12:03:50;;;;;;;3.30;1.55;;;;;;;18.14;78.89;99377.56;5111677;28;20101;-80
2022/07/01 12:06:18;;;;;;;2.22;1.40;;;;;;;18.54;78.13;99393.59;5097192;28;20048;-80
2022/07/01 12:08:46;;;;;;;2.17;1.50;;;;;;;18.97;80.85;99394.50;5091659;28;20048;-79
2022/07/01 12:11:14;;;;;;;2.03;1.27;;;;;;;19.15;80.30;99380.69;5090876;28;20051;-79
2022/07/01 12:13:40;;;;;;;1.83;1.20;;;;;;;18.88;72.86;99388.50;5090843;28;20048;-79
2022/07/01 12:16:08;;;;;;;3.45;1.45;;;;;;;18.94;76.37;99390.34;5090979;28;20490;-79
2022/07/01 12:18:34;;;;;;;2.33;1.30;;;;;;;19.04;75.15;99393.34;5088997;28;20048;-79
2022/07/01 12:21:02;;;;;;;4.13;1.40;;;;;;;18.89;74.96;99384.66;5092532;28;20679;-79
2022/07/01 12:23:28;;;;;;;7.07;1.60;;;;;;;19.32;76.83;99380.84;5110129;28;20044;-78
2022/07/01 12:25:55;;;;;;;1.60;1.30;;;;;;;19.16;70.22;99356.72;5108836;28;20514;-78
2022/07/01 12:28:29;;;;;;;7.65;1.40;;;;;;;19.57;69.82;99371.50;5111634;28;20047;-78
2022/07/01 12:31:03;;;;;;;1.40;1.30;;;;;;;19.83;70.35;99380.41;5109208;28;20404;-78
2022/07/01 12:33:30;;;;;;;1.45;1.35;;;;;;;19.95;66.33;99381.25;5080255;28;20059;-78
2022/07/01 12:35:57;;;;;;;2.78;1.02;;;;;;;19.84;69.11;99385.69;5079898;28;20073;-78
2022/07/01 12:38:23;;;;;;;1.02;0.90;;;;;;;19.46;66.15;99367.66;5090857;28;20486;-77
2022/07/01 12:40:50;;;;;;;2.13;1.17;;;;;;;19.77;67.08;99369.28;5089762;28;20499;-78
2022/07/01 12:43:30;;;;;;;3.17;1.30;;;;;;;19.86;69.24;99366.13;5110610;28;20067;-77
2022/07/01 12:45:58;;;;;;;1.30;1.20;;;;;;;19.75;70.24;99376.94;5111269;28;20051;-77
2022/07/01 12:48:25;;;;;;;1.20;1.10;;;;;;;19.44;66.92;99365.16;5106637;28;20054;-77
2022/07/01 12:50:57;;;;;;;2.47;1.30;;;;;;;19.47;68.61;99385.06;5085877;28;20071;-78
2022/07/01 12:53:24;;;;;;;1.60;1.20;;;;;;;19.81;65.00;99386.16;5089865;28;20078;-77
2022/07/01 12:55:53;;;;;;;3.30;1.33;;;;;;;20.09;67.43;99382.66;5090233;28;20074;-78
2022/07/01 12:58:24;;;;;;;1.25;1.13;;;;;;;20.10;65.50;99378.00;5090627;28;20051;-77
2022/07/01 13:00:54;;;;;;;2.35;1.15;;;;;;;20.03;62.42;99377.28;5089418;28;20050;-77
2022/07/01 13:03:22;;;;;;;4.78;1.20;;;;;;;20.63;60.95;99367.78;5069436;28;20048;-77
2022/07/01 13:05:50;;;;;;;1.35;1.25;;;;;;;20.73;60.82;99378.22;5083753;28;20059;-77
2022/07/01 13:08:17;;;;;;;1.63;1.38;;;;;;;20.68;66.06;99357.72;5084619;28;20040;-77
2022/07/01 13:10:44;;;;;;;3.05;1.02;;;;;;;20.40;62.68;99365.91;5087312;28;20048;-76
2022/07/01 13:13:11;;;;;;;2.13;1.08;;;;;;;19.78;64.95;99373.72;5108042;28;20067;-77
2022/07/01 13:15:38;;;;;;;3.72;1.13;;;;;;;20.32;62.12;99353.34;5089512;28;20055;-77
2022/07/01 13:18:07;;;;;;;3.58;1.40;;;;;;;21.01;62.19;99342.25;5089272;28;20052;-76
2022/07/01 13:20:33;;;;;;;2.10;1.15;;;;;;;21.50;57.49;99363.88;5096132;28;20344;-76
2022/07/01 13:23:00;;;;;;;4.72;1.27;;;;;;;21.84;61.43;99352.75;5091353;28;20048;-77
2022/07/01 13:25:27;;;;;;;3.10;1.33;;;;;;;22.30;60.71;99362.81;5085581;28;20048;-76
2022/07/01 13:27:53;;;;;;;1.10;0.98;;;;;;;22.36;57.37;99354.31;5088813;28;20380;-77
2022/07/01 13:30:21;;;;;;;1.48;1.10;;;;;;;22.43;56.26;99357.72;5089265;28;20052;-76
2022/07/01 13:32:52;;;;;;;1.10;1.00;;;;;;;22.77;58.82;99340.09;5088416;28;20406;-76
2022/07/01 13:35:20;;;;;;;3.00;1.10;;;;;;;22.39;54.55;99367.66;5086988;28;20056;-76
2022/07/01 13:37:47;;;;;;;1.15;0.90;;;;;;;22.03;54.16;99346.94;5089679;28;20048;-76
2022/07/01 13:40:13;;;;;;;1.55;1.00;;;;;;;21.59;55.23;99369.81;5080406;28;20487;-76
2022/07/01 13:42:40;;;;;;;1.58;0.95;;;;;;;21.66;57.37;99372.41;5074977;28;20483;-76
2022/07/01 13:45:07;;;;;;;2.25;0.93;;;;;;;21.89;53.54;99374.16;5089628;28;20195;-75
2022/07/01 13:47:34;;;;;;;2.20;1.17;;;;;;;21.79;54.30;99366.53;5086222;28;20043;-76
2022/07/01 13:50:01;;;;;;;2.63;1.33;;;;;;;21.86;55.00;99352.50;5089465;28;20056;-77
2022/07/01 13:52:29;;;;;;;2.50;0.95;;;;;;;22.02;51.11;99387.59;5088331;28;20047;-76
2022/07/01 13:54:56;;;;;;;1.10;0.80;;;;;;;22.36;51.68;99361.81;5089152;28;20048;-77
2022/07/01 13:57:23;;;;;;;0.82;0.82;;;;;;;22.50;50.93;99368.59;5089278;28;20065;-76
2022/07/01 13:59:49;;;;;;;1.33;0.80;;;;;;;22.30;54.01;99369.16;5088717;28;20048;-76
2022/07/01 14:02:17;;;;;;;1.23;1.08;;;;;;;22.73;54.45;99367.50;5078754;28;20208;-75
2022/07/01 14:04:44;;;;;;;3.67;0.85;;;;;;;22.91;58.51;99371.00;5089212;28;20406;-76
2022/07/01 14:07:10;;;;;;;3.17;0.90;;;;;;;22.92;55.76;99343.00;5089550;28;20055;-76
2022/07/01 14:09:40;;;;;;;6.30;0.80;;;;;;;22.69;58.39;99355.25;5086165;28;20054;-76
2022/07/01 14:12:07;;;;;;;3.60;0.95;;;;;;;21.89;58.48;99377.75;5087351;28;20127;-76
2022/07/01 14:14:33;;;;;;;0.93;0.68;;;;;;;21.50;59.54;99380.47;5087566;28;20048;-75
2022/07/01 14:17:00;;;;;;;1.42;0.70;;;;;;;21.68;58.25;99362.75;5078028;28;20055;-76
2022/07/01 14:19:27;;;;;;;10.55;0.90;;;;;;;22.27;58.19;99389.06;5080575;28;20044;-76
2022/07/01 14:21:55;;;;;;;3.08;0.90;;;;;;;22.69;58.61;99365.47;5088229;28;20051;-76
2022/07/01 14:24:21;;;;;;;2.00;0.98;;;;;;;22.86;56.69;99366.25;5087568;28;20506;-76
2022/07/01 14:26:49;;;;;;;4.75;1.17;;;;;;;23.07;50.82;99370.06;5089012;28;20059;-75
2022/07/01 14:29:15;;;;;;;0.80;0.80;;;;;;;23.12;50.77;99380.38;5076380;28;20511;-76
2022/07/01 14:31:42;;;;;;;2.10;0.90;;;;;;;23.06;51.58;99379.47;5086880;28;20134;-76
2022/07/01 14:34:08;;;;;;;0.88;0.70;;;;;;;23.50;54.27;99384.91;5085358;28;20052;-76
2022/07/01 14:36:35;;;;;;;2.25;0.95;;;;;;;23.50;51.89;99359.94;5085145;28;20301;-76
2022/07/01 14:39:01;;;;;;;0.82;0.70;;;;;;;23.72;49.71;99378.41;5088401;28;20048;-76
2022/07/01 14:41:28;;;;;;;1.20;0.73;;;;;;;23.32;51.12;99382.53;5087706;28;20047;-75
2022/07/01 14:43:56;;;;;;;2.25;0.80;;;;;;;23.50;52.08;99381.28;5086169;28;20139;-76
2022/07/01 14:46:22;;;;;;;2.97;1.30;;;;;;;23.38;53.08;99364.84;5087689;28;20051;-76
2022/07/01 14:48:49;;;;;;;2.80;0.90;;;;;;;22.97;50.76;99372.72;5088605;28;20134;-76
2022/07/01 14:51:15;;;;;;;0.68;0.60;;;;;;;23.00;50.41;99386.06;5087468;28;20048;-76
2022/07/01 14:53:42;;;;;;;0.77;0.70;;;;;;;22.75;50.27;99375.56;5087446;28;20056;-76
2022/07/01 14:56:08;;;;;;;2.25;0.80;;;;;;;23.20;53.30;99360.50;5088417;28;20052;-75
2022/07/01 14:58:36;;;;;;;3.97;0.90;;;;;;;23.48;53.89;99367.66;5082526;28;20411;-75
2022/07/01 15:01:04;;;;;;;2.05;0.80;;;;;;;23.70;52.36;99377.84;5082387;28;20044;-76
2022/07/01 15:03:30;;;;;;;1.58;1.20;;;;;;;23.78;51.43;99376.50;5093502;28;20059;-76
2022/07/01 15:05:57;;;;;;;2.92;0.80;;;;;;;23.86;53.13;99364.91;5088223;28;20499;-76
2022/07/01 15:08:23;;;;;;;1.65;0.88;;;;;;;24.06;52.62;99367.00;5088443;28;20051;-76
2022/07/01 15:10:50;;;;;;;2.80;0.70;;;;;;;23.87;51.53;99371.31;5086302;28;20058;-75
2022/07/01 15:13:17;;;;;;;1.85;0.82;;;;;;;23.77;52.01;99366.50;5087419;28;20056;-75
2022/07/01 15:15:44;;;;;;;2.28;0.80;;;;;;;23.87;50.81;99366.59;5077574;28;20040;-75
2022/07/01 15:18:12;;;;;;;1.67;0.70;;;;;;;23.98;48.20;99373.91;5088173;28;20048;-76
2022/07/01 15:20:38;;;;;;;0.60;0.60;;;;;;;23.46;50.55;99344.91;5086234;28;20059;-76
2022/07/01 15:23:05;;;;;;;2.78;0.70;;;;;;;23.60;50.16;99358.34;5087527;28;20198;-75
2022/07/01 15:25:31;;;;;;;1.70;0.57;;;;;;;23.75;48.59;99377.03;5087869;28;20071;-76
2022/07/01 15:27:58;;;;;;;1.17;0.70;;;;;;;23.77;50.26;99369.25;5090541;28;20040;-75
2022/07/01 15:30:24;;;;;;;2.45;1.25;;;;;;;23.94;50.45;99385.81;5089454;28;20044;-75
2022/07/01 15:32:51;;;;;;;3.63;0.68;;;;;;;23.25;49.00;99352.22;5093613;28;20051;-77
2022/07/01 15:35:18;;;;;;;1.40;0.85;;;;;;;22.96;50.96;99359.97;5092624;28;20060;-76
2022/07/01 15:37:45;;;;;;;2.08;0.60;;;;;;;23.50;48.66;99368.25;5093611;28;20048;-77
2022/07/01 15:40:11;;;;;;;1.15;0.50;;;;;;;23.87;50.59;99386.03;5112205;28;20053;-76
2022/07/01 15:42:38;;;;;;;3.33;0.60;;;;;;;24.08;48.91;99375.06;5093918;28;20052;-76
2022/07/01 15:45:06;;;;;;;1.23;0.63;;;;;;;24.17;50.25;99370.66;5088086;28;20048;-76
2022/07/01 15:50:18;;;;;;;2.22;0.88;;;;;;;24.05;47.52;99379.19;5092212;28;20548;-76
2022/07/01 15:52:47;;;;;;;2.60;0.80;;;;;;;23.55;45.50;99374.94;5090619;28;20052;-76
2022/07/01 15:55:21;;;;;;;2.37;0.80;;;;;;;23.87;47.51;99382.44;5085476;28;20044;-76
2022/07/01 15:57:48;;;;;;;1.60;0.60;;;;;;;23.98;48.13;99373.03;5091563;28;20071;-76
2022/07/01 16:00:15;;;;;;;1.40;0.70;;;;;;;23.41;46.69;99372.63;5092030;28;20047;-77
2022/07/01 16:02:42;;;;;;;2.08;1.00;;;;;;;23.53;46.80;99363.25;5092442;28;20135;-77
2022/07/01 16:05:11;;;;;;;1.80;0.80;;;;;;;23.33;48.92;99351.75;5093039;28;20048;-77
2022/07/01 16:07:39;;;;;;;1.60;0.87;;;;;;;23.68;50.40;99371.69;5094187;28;20079;-76
2022/07/01 16:10:09;;;;;;;1.75;0.70;;;;;;;23.69;48.70;99365.88;5090009;28;20115;-76
2022/07/01 16:12:36;;;;;;;0.98;0.70;;;;;;;23.23;49.05;99382.16;5092336;28;20048;-77
2022/07/01 16:15:05;;;;;;;0.52;0.50;;;;;;;23.12;49.15;99372.06;5091956;28;20062;-77
2022/07/01 16:17:35;;;;;;;1.33;0.83;;;;;;;23.58;52.48;99350.28;5096656;28;20051;-77
2022/07/01 16:20:04;;;;;;;4.85;1.80;;;;;;;23.54;51.79;99379.66;5093507;28;20487;-77
2022/07/01 16:22:34;;;;;;;7.67;1.13;;;;;;;23.19;52.59;99369.09;5088497;28;20520;-77
2022/07/01 16:25:03;;;;;;;2.40;1.38;;;;;;;22.48;53.85;99387.44;5093253;28;20056;-76
2022/07/01 16:27:33;;;;;;;3.45;1.90;;;;;;;22.31;55.76;99389.38;5090303;28;20058;-76
2022/07/01 16:30:02;;;;;;;1.88;0.73;;;;;;;22.42;54.19;99391.22;5086278;28;20135;-76
2022/07/01 16:32:31;;;;;;;1.23;0.90;;;;;;;22.83;52.48;99385.34;5090618;28;20040;-76
2022/07/01 16:34:58;;;;;;;3.72;0.80;;;;;;;23.19;50.51;99378.25;5092954;28;20109;-76
2022/07/01 16:37:35;;;;;;;1.98;0.75;;;;;;;23.31;50.28;99390.00;5093476;28;20093;-76
2022/07/01 16:40:27;;;;;;;1.55;0.95;;;;;;;22.98;47.03;99389.09;5093607;28;20123;-77
2022/07/01 16:42:55;;;;;;;2.00;0.70;;;;;;;23.28;48.66;99395.25;5088715;28;20049;-76
2022/07/01 16:45:42;;;;;;;2.30;0.80;;;;;;;23.35;50.79;99392.25;5092704;28;20507;-76
2022/07/01 16:48:09;;;;;;;6.32;0.88;;;;;;;23.13;47.33;99396.75;5093098;28;20483;-77
2022/07/01 16:50:39;;;;;;;1.23;0.73;;;;;;;22.96;46.56;99385.75;5093592;28;20047;-77
2022/07/01 16:53:13;;;;;;;1.30;0.70;;;;;;;22.86;45.51;99390.34;5102544;28;20051;-77
2022/07/01 16:55:43;;;;;;;0.95;0.80;;;;;;;23.34;48.10;99385.88;5113290;28;20058;-76
2022/07/01 16:58:15;;;;;;;1.30;0.60;;;;;;;23.22;47.46;99397.13;5097060;28;20049;-76
2022/07/01 17:00:42;;;;;;;1.30;0.63;;;;;;;23.40;46.89;99367.34;5097243;28;20047;-77
2022/07/01 17:03:09;;;;;;;0.77;0.70;;;;;;;23.30;47.75;99401.34;5112308;28;20554;-76
2022/07/01 17:05:36;;;;;;;1.40;0.75;;;;;;;22.67;46.47;99399.00;5096231;28;20051;-76
2022/07/01 17:08:03;;;;;;;2.28;0.93;;;;;;;22.55;49.54;99390.84;5091346;28;20059;-76
2022/07/01 17:10:31;;;;;;;1.90;0.70;;;;;;;22.54;50.96;99403.00;5092228;28;20044;-76
2022/07/01 17:12:59;;;;;;;2.70;0.70;;;;;;;22.55;52.26;99399.16;5102411;28;20048;-76
2022/07/01 17:15:27;;;;;;;4.68;0.80;;;;;;;22.67;52.75;99395.41;5112748;28;20047;-76
2022/07/01 17:17:53;;;;;;;1.98;0.77;;;;;;;22.45;50.90;99407.34;5072048;28;20045;-76
2022/07/01 17:20:20;;;;;;;1.42;0.73;;;;;;;22.40;51.55;99393.41;5080979;28;20048;-76
2022/07/01 17:22:57;;;;;;;1.75;0.65;;;;;;;22.67;52.25;99409.25;5086936;28;20044;-76
2022/07/01 17:25:34;;;;;;;1.05;0.80;;;;;;;22.62;53.70;99402.53;5082564;28;20065;-76
2022/07/01 17:28:24;;;;;;;1.63;0.68;;;;;;;22.52;54.65;99415.44;5086998;28;20045;-76
2022/07/01 17:30:56;;;;;;;1.38;0.70;;;;;;;22.36;54.08;99415.25;5071950;28;20052;-76
2022/07/01 17:33:26;;;;;;;3.33;0.88;;;;;;;22.07;54.42;99422.81;5071219;28;20052;-76
2022/07/01 17:35:52;;;;;;;;;;;;;;;22.06;54.98;99424.75;5086783;28;20081;-76
2022/07/01 17:38:21;;;;;;;2.55;0.93;;;;;;;21.92;54.87;99427.06;5092016;28;19920;-76
2022/07/01 17:40:49;;;;;;;2.20;0.80;;;;;;;21.64;54.96;99418.84;5093388;28;20055;-76
2022/07/01 17:43:18;;;;;;;1.30;0.60;;;;;;;21.47;54.77;99403.06;5107290;28;20052;-76
2022/07/01 17:45:46;;;;;;;0.85;0.50;;;;;;;21.25;56.21;99396.59;5112208;28;20054;-76
2022/07/01 17:48:16;;;;;;;2.80;0.73;;;;;;;21.35;57.06;99430.78;5106574;28;20058;-76
2022/07/01 17:50:44;;;;;;;0.63;0.60;;;;;;;21.35;57.03;99435.50;5090969;28;20044;-76
2022/07/01 17:53:11;;;;;;;4.03;0.90;;;;;;;21.35;57.17;99435.50;5103488;28;20498;-76
2022/07/01 17:55:40;;;;;;;0.70;0.70;;;;;;;21.21;56.99;99421.13;5090360;28;20052;-76
2022/07/01 17:58:07;;;;;;;2.60;0.90;;;;;;;20.94;58.04;99429.19;5091655;28;20071;-76
2022/07/01 18:00:34;;;;;;;0.88;0.50;;;;;;;21.07;58.28;99428.06;5096379;28;20050;-76
2022/07/01 18:03:02;;;;;;;1.10;0.57;;;;;;;21.00;56.96;99433.72;5100896;28;20048;-76
2022/07/01 18:05:31;;;;;;;0.47;0.40;;;;;;;21.00;58.81;99434.56;5091682;28;20510;-76
2022/07/01 18:07:58;;;;;;;2.47;0.68;;;;;;;20.66;58.34;99404.06;5090077;28;20396;-77
2022/07/01 18:10:31;;;;;;;2.00;0.77;;;;;;;20.71;60.87;99408.84;5090404;28;20044;-76
2022/07/01 18:13:02;;;;;;;1.67;0.60;;;;;;;20.56;59.49;99400.22;5090700;28;20510;-76
2022/07/01 18:15:34;;;;;;;2.30;0.98;;;;;;;20.56;61.86;99420.38;5091698;28;20081;-76
2022/07/01 18:18:03;;;;;;;5.10;0.75;;;;;;;20.56;63.03;99436.13;5091347;28;20060;-76
2022/07/01 18:20:41;;;;;;;7.57;1.10;;;;;;;20.40;65.34;99438.56;5091024;28;20048;-76
2022/07/01 18:23:14;;;;;;;1.20;0.77;;;;;;;20.37;64.02;99438.19;5090603;28;20546;-76
2022/07/01 18:25:42;;;;;;;1.75;0.70;;;;;;;20.30;64.78;99433.66;5089408;28;20061;-76
2022/07/01 18:28:12;;;;;;;0.70;0.70;;;;;;;20.22;66.74;99441.44;5093506;28;20058;-76
2022/07/01 18:30:41;;;;;;;0.95;0.60;;;;;;;20.13;66.42;99416.16;5091027;28;20059;-76
2022/07/01 18:33:10;;;;;;;2.42;0.75;;;;;;;20.05;67.35;99427.56;5090461;28;20051;-76
2022/07/01 18:35:40;;;;;;;3.00;0.70;;;;;;;20.16;67.87;99444.09;5109929;28;20082;-76
2022/07/01 18:38:07;;;;;;;9.57;0.68;;;;;;;20.03;69.47;99444.34;5103464;28;20071;-76
2022/07/01 18:40:36;;;;;;;2.67;0.70;;;;;;;19.85;70.20;99434.28;5089438;28;20043;-76
2022/07/01 18:43:04;;;;;;;1.37;0.60;;;;;;;19.75;71.93;99429.34;5090359;28;20068;-76
2022/07/01 18:45:31;;;;;;;1.85;0.80;;;;;;;19.57;71.63;99423.91;5090591;28;20285;-76
2022/07/01 18:47:57;;;;;;;1.70;0.70;;;;;;;19.71;70.89;99444.66;5090910;28;20090;-76
2022/07/01 18:50:24;;;;;;;3.30;0.77;;;;;;;19.39;72.38;99420.16;5105788;28;20067;-76
2022/07/01 18:52:52;;;;;;;2.53;0.65;;;;;;;19.52;72.30;99443.06;5110430;28;20414;-76
2022/07/01 18:55:19;;;;;;;2.63;0.63;;;;;;;19.42;73.31;99454.66;5083973;28;20499;-76